createdAt,value
2023-01-29T00:00:39.613Z,71.70
2023-01-29T00:03:28.181Z,70.80
2023-01-29T00:05:57.051Z,72.40
2023-01-29T00:08:26.152Z,71.00
2023-01-29T00:11:05.212Z,71.90
2023-01-29T00:13:34.926Z,72.10
2023-01-29T00:16:03.911Z,70.70
2023-01-29T00:18:32.361Z,71.80
2023-01-29T00:21:01.373Z,70.80
2023-01-29T00:23:29.824Z,71.80
2023-01-29T00:26:00.795Z,71.10
2023-01-29T00:28:29.237Z,72.40
2023-01-29T00:30:58.143Z,70.00
2023-01-29T00:33:26.652Z,70.30
2023-01-29T00:35:55.435Z,72.10
2023-01-29T00:38:23.863Z,70.40
2023-01-29T00:41:11.341Z,70.70
2023-01-29T00:43:58.735Z,71.30
2023-01-29T00:46:27.523Z,69.90
2023-01-29T00:48:56.131Z,70.20
2023-01-29T00:51:25.003Z,70.30
2023-01-29T00:53:54.746Z,70.10
2023-01-29T00:56:29.880Z,70.60
2023-01-29T00:58:58.388Z,70.10
2023-01-29T01:01:45.958Z,69.90
2023-01-29T01:04:14.546Z,70.60
2023-01-29T01:06:44.711Z,69.60
2023-01-29T01:09:31.614Z,69.70
2023-01-29T01:12:00.482Z,69.70
2023-01-29T01:14:28.927Z,69.40
2023-01-29T01:16:57.738Z,69.20
2023-01-29T01:19:26.207Z,69.30
2023-01-29T01:21:55.018Z,69.20
2023-01-29T01:24:23.871Z,69.40
2023-01-29T01:26:52.787Z,69.20
2023-01-29T01:29:21.798Z,69.00
2023-01-29T01:31:53.847Z,69.10
2023-01-29T01:34:22.503Z,70.00
2023-01-29T01:36:51.587Z,69.30
2023-01-29T01:39:20.089Z,69.60
2023-01-29T01:41:48.919Z,70.30
2023-01-29T01:44:50.169Z,69.80
2023-01-29T01:47:40.909Z,70.40
2023-01-29T01:50:21.207Z,68.90
2023-01-29T01:52:53.849Z,70.90
2023-01-29T01:55:26.161Z,69.10
2023-01-29T01:58:03.409Z,70.80
2023-01-29T02:00:31.898Z,70.60
2023-01-29T02:03:19.308Z,69.60
2023-01-29T02:06:09.067Z,70.10
2023-01-29T02:09:28.671Z,69.90
2023-01-29T02:11:57.159Z,69.80
2023-01-29T02:14:26.045Z,69.90
2023-01-29T02:16:54.477Z,70.00
2023-01-29T02:20:00.009Z,70.50
2023-01-29T02:23:27.576Z,70.00
2023-01-29T02:26:45.617Z,69.60
2023-01-29T02:29:45.605Z,69.70
2023-01-29T02:32:37.334Z,69.70
2023-01-29T02:35:32.400Z,69.60
2023-01-29T02:38:14.109Z,69.30
2023-01-29T02:41:11.139Z,69.00
2023-01-29T02:43:47.685Z,69.30
2023-01-29T02:46:49.358Z,68.90
2023-01-29T02:49:50.336Z,68.50
2023-01-29T02:52:23.885Z,68.60
2023-01-29T02:55:05.214Z,68.70
2023-01-29T02:57:38.037Z,68.60
2023-01-29T03:00:14.950Z,68.50
2023-01-29T03:02:54.495Z,68.40
2023-01-29T03:06:23.200Z,68.50
2023-01-29T03:08:58.352Z,68.30
2023-01-29T03:11:47.615Z,68.20
2023-01-29T03:14:57.894Z,68.20
2023-01-29T03:17:32.075Z,68.20
2023-01-29T03:20:00.668Z,68.20
2023-01-29T03:22:29.457Z,68.00
2023-01-29T03:25:17.520Z,68.20
2023-01-29T03:28:19.128Z,68.00
2023-01-29T03:31:12.948Z,68.00
2023-01-29T03:34:24.903Z,67.90
2023-01-29T03:37:33.398Z,68.00
2023-01-29T03:40:04.556Z,68.10
2023-01-29T03:42:59.357Z,67.80
2023-01-29T03:45:32.340Z,67.70
2023-01-29T03:54:08.752Z,68.30
2023-01-29T03:57:05.620Z,67.80
2023-01-29T04:00:02.972Z,67.70
2023-01-29T04:03:23.812Z,67.80
2023-01-29T04:06:05.725Z,67.90
2023-01-29T04:09:09.909Z,67.50
2023-01-29T04:11:45.789Z,67.70
2023-01-29T04:14:14.822Z,67.50
2023-01-29T04:16:51.757Z,67.60
2023-01-29T04:19:37.674Z,67.60
2023-01-29T04:22:37.016Z,67.70
2023-01-29T04:25:16.201Z,67.80
2023-01-29T04:28:10.681Z,67.40
2023-01-29T04:31:04.861Z,67.80
2023-01-29T04:33:54.061Z,67.70
2023-01-29T04:36:55.542Z,67.60
2023-01-29T04:39:35.223Z,67.70
2023-01-29T04:42:17.531Z,67.60
2023-01-29T04:44:57.015Z,67.80
2023-01-29T04:48:02.677Z,68.00
2023-01-29T04:50:42.202Z,67.80
2023-01-29T04:53:29.253Z,67.70
2023-01-29T04:56:28.713Z,67.70
2023-01-29T04:59:05.762Z,67.80
2023-01-29T05:01:34.295Z,67.50
2023-01-29T05:04:10.403Z,67.70
2023-01-29T05:06:38.952Z,67.70
2023-01-29T05:09:10.080Z,69.20
2023-01-29T05:11:38.668Z,68.60
2023-01-29T05:14:08.268Z,68.80
2023-01-29T05:16:43.153Z,67.90
2023-01-29T05:19:16.381Z,68.40
2023-01-29T05:21:47.452Z,68.40
2023-01-29T05:24:19.780Z,68.10
2023-01-29T05:27:08.635Z,67.70
2023-01-29T05:29:37.546Z,68.20
2023-01-29T05:32:06.364Z,67.10
2023-01-29T05:34:35.396Z,67.00
2023-01-29T05:37:04.116Z,66.50
2023-01-29T05:39:33.257Z,66.20
2023-01-29T05:42:02.238Z,66.00
2023-01-29T05:44:32.336Z,65.80
2023-01-29T05:47:02.919Z,66.40
2023-01-29T05:49:31.763Z,65.40
2023-01-29T05:52:00.366Z,65.20
2023-01-29T05:54:29.256Z,65.00
2023-01-29T05:56:57.733Z,65.00
2023-01-29T05:59:26.659Z,64.90
2023-01-29T06:01:55.215Z,64.90
2023-01-29T06:04:24.323Z,64.60
2023-01-29T06:06:52.840Z,64.60
2023-01-29T06:09:21.828Z,64.40
2023-01-29T06:11:50.323Z,64.30
2023-01-29T06:14:20.363Z,64.20
2023-01-29T06:16:48.824Z,64.00
2023-01-29T06:19:18.433Z,63.80
2023-01-29T06:21:47.003Z,63.80
2023-01-29T06:24:15.960Z,63.80
2023-01-29T06:26:44.404Z,63.60
2023-01-29T06:29:13.344Z,63.50
2023-01-29T06:31:41.874Z,63.40
2023-01-29T06:34:12.002Z,63.30
2023-01-29T06:36:41.990Z,63.20
2023-01-29T06:39:10.995Z,63.00
2023-01-29T06:41:39.461Z,63.00
2023-01-29T06:44:08.283Z,63.20
2023-01-29T06:46:36.794Z,63.30
2023-01-29T06:49:05.664Z,63.20
2023-01-29T06:51:34.196Z,63.30
2023-01-29T06:54:03.184Z,63.30
2023-01-29T06:56:31.676Z,63.10
2023-01-29T06:59:01.805Z,63.10
2023-01-29T07:01:36.029Z,63.10
2023-01-29T07:04:05.559Z,63.30
2023-01-29T07:06:34.331Z,63.40
2023-01-29T07:09:04.601Z,63.50
2023-01-29T07:11:34.836Z,63.50
2023-01-29T07:14:03.894Z,63.60
2023-01-29T07:16:32.667Z,63.70
2023-01-29T07:19:01.763Z,63.90
2023-01-29T07:21:30.251Z,63.90
2023-01-29T07:23:59.146Z,63.90
2023-01-29T07:26:27.828Z,63.90
2023-01-29T07:28:56.662Z,63.90
2023-01-29T07:31:25.209Z,64.00
2023-01-29T07:33:54.121Z,64.10
2023-01-29T07:36:22.645Z,64.10
2023-01-29T07:38:51.833Z,64.30
2023-01-29T07:41:20.395Z,64.30
2023-01-29T07:43:49.437Z,64.50
2023-01-29T07:46:18.062Z,64.60
2023-01-29T07:48:46.904Z,64.70
2023-01-29T07:51:17.257Z,64.70
2023-01-29T07:53:46.237Z,64.70
2023-01-29T07:56:14.816Z,64.70
2023-01-29T07:58:43.682Z,64.80
2023-01-29T08:01:12.179Z,64.90
2023-01-29T08:03:40.973Z,65.00
2023-01-29T08:06:09.506Z,65.90
2023-01-29T08:08:38.408Z,65.10
2023-01-29T08:11:06.973Z,65.10
2023-01-29T08:13:35.814Z,65.20
2023-01-29T08:16:04.973Z,65.10
2023-01-29T08:18:33.811Z,65.10
2023-01-29T08:21:02.475Z,65.30
2023-01-29T08:23:31.363Z,65.50
2023-01-29T08:25:59.903Z,65.70
2023-01-29T08:28:28.834Z,65.60
2023-01-29T08:30:57.405Z,65.70
2023-01-29T08:33:38.298Z,65.80
2023-01-29T08:36:09.046Z,65.80
2023-01-29T08:38:37.913Z,65.90
2023-01-29T08:41:06.681Z,66.10
2023-01-29T08:43:37.389Z,66.30
2023-01-29T08:46:06.422Z,66.50
2023-01-29T08:48:35.300Z,67.10
2023-01-29T08:51:04.768Z,67.20
2023-01-29T08:53:33.438Z,67.30
2023-01-29T08:56:02.670Z,67.20
2023-01-29T08:58:31.123Z,67.10
2023-01-29T09:01:12.502Z,66.70
2023-01-29T09:03:47.193Z,66.70
2023-01-29T09:06:16.039Z,66.90
2023-01-29T09:08:44.592Z,67.10
2023-01-29T09:11:14.456Z,67.20
2023-01-29T09:13:43.017Z,67.30
2023-01-29T09:16:11.814Z,67.40
2023-01-29T09:18:40.193Z,68.00
2023-01-29T09:21:09.526Z,68.00
2023-01-29T09:23:38.192Z,68.30
2023-01-29T09:26:08.552Z,68.80
2023-01-29T09:28:37.032Z,68.60
2023-01-29T09:31:05.924Z,68.40
2023-01-29T09:33:34.632Z,68.30
2023-01-29T09:36:06.199Z,68.20
2023-01-29T09:38:34.695Z,68.00
2023-01-29T09:41:51.607Z,68.00
2023-01-29T09:44:56.358Z,68.00
2023-01-29T09:47:27.270Z,68.00
2023-01-29T09:50:12.634Z,68.00
2023-01-29T09:52:54.657Z,68.10
2023-01-29T09:55:32.904Z,68.00
2023-01-29T09:58:24.261Z,67.80
2023-01-29T10:01:21.481Z,67.70
2023-01-29T10:04:04.783Z,67.30
2023-01-29T10:07:00.148Z,67.00
2023-01-29T10:10:05.575Z,66.80
2023-01-29T10:12:47.068Z,66.60
2023-01-29T10:15:28.873Z,66.50
2023-01-29T10:18:12.285Z,66.60
2023-01-29T10:20:47.471Z,66.40
2023-01-29T10:23:43.025Z,66.40
2023-01-29T10:26:12.188Z,66.50
2023-01-29T10:28:46.756Z,66.50
2023-01-29T10:31:27.982Z,66.60
2023-01-29T10:34:07.649Z,66.60
2023-01-29T10:36:57.446Z,66.60
2023-01-29T10:39:26.909Z,66.60
2023-01-29T10:42:32.513Z,66.30
2023-01-29T10:45:54.873Z,66.20
2023-01-29T10:48:45.360Z,66.00
2023-01-29T10:51:35.165Z,65.90
2023-01-29T10:54:47.281Z,66.50
2023-01-29T10:57:46.255Z,65.70
2023-01-29T11:00:39.137Z,65.50
2023-01-29T11:03:29.461Z,65.40
2023-01-29T11:06:24.358Z,65.40
2023-01-29T11:09:13.391Z,66.70
2023-01-29T11:12:10.222Z,66.00
2023-01-29T11:19:52.017Z,63.60
2023-01-29T17:17:34.063Z,65.20
2023-01-29T17:43:11.903Z,68.20
2023-01-29T17:50:44.505Z,66.90
2023-01-29T18:13:31.101Z,67.10
2023-01-29T18:16:00.101Z,70.60
2023-01-29T18:18:29.124Z,70.80
2023-01-29T18:20:58.096Z,70.70
2023-01-29T18:23:29.961Z,70.80
2023-01-29T18:25:58.611Z,70.80
2023-01-29T18:28:27.497Z,70.90
2023-01-29T18:30:56.388Z,70.70
2023-01-29T18:33:26.086Z,70.70
2023-01-29T18:35:55.342Z,70.80
2023-01-29T18:38:24.284Z,71.00
2023-01-29T18:40:53.237Z,71.20
2023-01-29T18:43:25.465Z,71.30
2023-01-29T19:06:09.920Z,71.60
2023-01-29T19:08:39.023Z,76.20
2023-01-29T19:11:08.356Z,76.40
2023-01-29T19:13:38.145Z,76.70
2023-01-29T19:16:09.358Z,76.40
2023-01-29T19:18:38.296Z,76.10
2023-01-29T19:21:09.405Z,76.00
2023-01-29T19:23:38.275Z,76.00
2023-01-29T19:26:07.052Z,76.00
2023-01-29T19:28:37.025Z,76.10
2023-01-29T19:31:06.270Z,76.20
2023-01-29T19:33:35.336Z,76.80
2023-01-29T19:36:04.053Z,77.20
2023-01-29T19:38:34.746Z,77.50
2023-01-29T19:41:05.435Z,77.40
2023-01-29T19:43:35.328Z,77.60
2023-01-29T19:46:03.970Z,77.50
2023-01-29T19:48:33.602Z,77.20
2023-01-29T19:51:08.728Z,77.00
2023-01-29T19:53:39.996Z,75.80
2023-01-29T19:56:10.965Z,75.00
2023-01-29T19:58:40.011Z,74.50
2023-01-29T20:01:17.925Z,74.20
2023-01-29T20:03:50.045Z,73.90
2023-01-29T20:06:20.801Z,73.80
2023-01-29T20:08:49.894Z,79.80
2023-01-29T20:11:21.125Z,81.70
2023-01-29T20:13:51.353Z,81.30
2023-01-29T20:16:20.516Z,80.90
2023-01-29T20:18:49.603Z,80.90
2023-01-29T20:21:22.934Z,80.90
2023-01-29T20:23:52.331Z,81.20
2023-01-29T20:26:21.700Z,82.00
2023-01-29T20:28:50.831Z,84.30
2023-01-29T20:31:19.375Z,84.60
2023-01-29T20:33:48.300Z,84.30
2023-01-29T20:41:17.886Z,84.40
2023-01-29T20:43:47.403Z,92.90
2023-01-29T20:46:15.967Z,92.40
2023-01-29T20:48:46.259Z,92.30
2023-01-29T20:51:17.065Z,92.20
2023-01-29T20:53:46.790Z,92.20
2023-01-29T20:56:16.396Z,92.10
2023-01-29T20:58:47.065Z,92.20
2023-01-29T21:01:18.938Z,92.10
2023-01-29T21:03:48.024Z,92.10
2023-01-29T21:06:16.587Z,92.00
2023-01-29T21:08:45.544Z,92.30
2023-01-29T21:11:14.191Z,91.90
2023-01-29T21:13:44.262Z,92.00
2023-01-29T21:16:13.341Z,91.90
2023-01-29T21:18:42.343Z,91.90
2023-01-29T21:21:11.117Z,92.00
2023-01-29T21:23:40.025Z,92.10
2023-01-29T21:26:09.094Z,92.10
2023-01-29T21:28:37.944Z,94.20
2023-01-29T21:31:10.339Z,96.60
2023-01-29T21:36:10.295Z,96.40
2023-01-29T21:38:40.463Z,97.00
2023-01-29T21:41:10.027Z,97.10
2023-01-29T21:43:39.375Z,97.10
2023-01-29T21:46:12.476Z,97.10
2023-01-29T21:48:41.757Z,97.30
2023-01-29T21:51:10.242Z,97.50
2023-01-29T21:53:39.185Z,99.10
2023-01-29T22:01:36.532Z,90.00
2023-01-29T22:03:57.272Z,90.30
2023-01-29T22:06:26.349Z,90.00
2023-01-29T22:13:54.157Z,90.50
2023-01-29T22:16:22.737Z,92.00
2023-01-29T22:18:51.563Z,91.80
2023-01-29T22:21:20.184Z,91.80
2023-01-29T22:23:52.319Z,91.90
2023-01-29T22:26:20.882Z,86.30
2023-01-29T22:28:49.664Z,82.50
2023-01-29T22:38:44.807Z,82.50
2023-01-29T22:41:13.744Z,81.90
2023-01-29T22:43:44.173Z,81.70
2023-01-29T22:46:12.858Z,81.50
2023-01-29T22:51:10.582Z,81.40
2023-01-29T22:53:42.030Z,81.30
2023-01-29T22:56:11.447Z,81.20
2023-01-29T22:58:41.450Z,81.10
2023-01-29T23:01:10.096Z,82.50
2023-01-29T23:03:38.924Z,82.50
2023-01-29T23:06:07.373Z,82.40
2023-01-29T23:08:36.242Z,82.40
2023-01-29T23:11:14.712Z,82.30
2023-01-29T23:13:54.099Z,83.00
2023-01-29T23:16:27.003Z,83.40
2023-01-29T23:18:57.139Z,83.30
2023-01-29T23:21:26.051Z,83.40
2023-01-29T23:23:58.466Z,83.70
2023-01-29T23:26:47.122Z,84.20
2023-01-29T23:29:16.206Z,84.30
2023-01-29T23:31:44.772Z,84.20
2023-01-29T23:34:14.579Z,84.00
2023-01-29T23:36:43.238Z,84.00
2023-01-29T23:39:12.398Z,84.10
2023-01-29T23:41:40.854Z,84.10
2023-01-29T23:44:09.711Z,84.30
2023-01-29T23:46:38.419Z,84.30
2023-01-29T23:49:07.587Z,84.20
2023-01-29T23:51:36.162Z,84.60
2023-01-29T23:54:05.601Z,84.70
2023-01-29T23:56:34.715Z,84.80
2023-01-29T23:59:04.753Z,84.80
